Ncc Rabigh — HZQA — position and weather

sailwx.info

Track history (hours):
 
Tides and Currents Weather Stations Pressure Air Temp Water Temp Dewpoint Dewpoint Depression Visibility Wind Speed Wind Dir Waves Ship Positions

Ncc Rabigh

Last reported at 2015-Apr-25 14:29 UTC. Time now 2015-May-06 09:27 UTC.
Position N 01°56' E 102°19'.
Warning: this ship's position is 10 days out of date.

Length 183 m; draft 8.8 m.

Type: Ship (hazmat cat B). MMSI: 403575000.

Date/timePositionNaut miles runAvg speedWind from/ knotsBaromVisibWave heightAir tempDewpointWater temp
2015-Apr-25 14:29N 01°56' E 102°19'1313.8
2015-Apr-25 13:33N 01°51' E 102°31'1414.3
2015-Apr-25 12:33N 01°45' E 102°44'1614.4
2015-Apr-25 11:25N 01°38' E 102°59'4812.2
2015-Apr-25 07:31N 01°13' E 103°39'3 0.1
2015-Apr-23 23:31N 01°14' E 103°42'4 0.3
2015-Apr-23 08:26N 01°10' E 103°43'0 0.0
2015-Apr-22 16:14N 01°10' E 103°43'0 0.0
2015-Apr-22 12:26N 01°10' E 103°43'3 0.1
2015-Apr-21 10:32N 01°13' E 103°41'6 1.3
2015-Apr-21 05:23N 01°10' E 103°47'7 7.9
2015-Apr-21 04:33N 01°13' E 103°53'1110.7
2015-Apr-21 03:33N 01°16' E 104°03'  
2015-Apr-16 11:33N 21°03' E 119°06'1515.1
2015-Apr-16 10:33N 21°16' E 119°14'2114.7
2015-Apr-16 09:08N 21°35' E 119°24'1013.7
2015-Apr-16 08:25N 21°43' E 119°29'1413.6
2015-Apr-16 07:23N 21°56' E 119°37'2713.0
2015-Apr-16 05:17N 22°20' E 119°51'912.9
2015-Apr-16 04:33N 22°29' E 119°53'1313.5
2015-Apr-16 03:33N 22°42' E 119°53'1514.9
2015-Apr-16 02:33N 22°57' E 119°53'  
Track history (hours):
 
Tides and Currents Weather Stations Pressure Air Temp Water Temp Dewpoint Dewpoint Depression Visibility Wind Speed Wind Dir Waves Ship Positions

Ncc Rabigh

Last reported at 2015-Apr-25 14:29 UTC. Time now 2015-May-06 09:27 UTC.
Position N 01°56' E 102°19'.
Warning: this ship's position is 10 days out of date.

Length 183 m; draft 8.8 m.

Type: Ship (hazmat cat B). MMSI: 403575000.

Date/timePositionNaut miles runAvg speedWind from/ knotsBaromVisibWave heightAir tempDewpointWater temp
2015-Apr-25 14:29N 01°56' E 102°19'1313.8
2015-Apr-25 13:33N 01°51' E 102°31'1414.3
2015-Apr-25 12:33N 01°45' E 102°44'1614.4
2015-Apr-25 11:25N 01°38' E 102°59'4812.2
2015-Apr-25 07:31N 01°13' E 103°39'3 0.1
2015-Apr-23 23:31N 01°14' E 103°42'4 0.3
2015-Apr-23 08:26N 01°10' E 103°43'0 0.0
2015-Apr-22 16:14N 01°10' E 103°43'0 0.0
2015-Apr-22 12:26N 01°10' E 103°43'3 0.1
2015-Apr-21 10:32N 01°13' E 103°41'6 1.3
2015-Apr-21 05:23N 01°10' E 103°47'7 7.9
2015-Apr-21 04:33N 01°13' E 103°53'1110.7
2015-Apr-21 03:33N 01°16' E 104°03'  
2015-Apr-16 11:33N 21°03' E 119°06'1515.1
2015-Apr-16 10:33N 21°16' E 119°14'2114.7
2015-Apr-16 09:08N 21°35' E 119°24'1013.7
2015-Apr-16 08:25N 21°43' E 119°29'1413.6
2015-Apr-16 07:23N 21°56' E 119°37'2713.0
2015-Apr-16 05:17N 22°20' E 119°51'912.9
2015-Apr-16 04:33N 22°29' E 119°53'1313.5
2015-Apr-16 03:33N 22°42' E 119°53'1514.9
2015-Apr-16 02:33N 22°57' E 119°53'  

Dump ship's entire track history